Time;durP1;ratioP1;P1;durP2;ratioP2;P2;SDS_P1;SDS_P2;PMS_P1;PMS_P2;Temp;Humidity;BMP_temperature;BMP_pressure;BME280_temperature;BME280_humidity;BME280_pressure;Samples;Min_cycle;Max_cycle;Signal;HPM_P1;HPM_P2
2021/06/23 00:01:12;;;;;;;;;24.75;23.25;;;;;23.82;45.18;101494.44;5012350;28;51073;-58
2021/06/23 00:03:37;;;;;;;;;23.50;21.50;;;;;23.80;45.52;101491.06;5019790;28;51039;-58
2021/06/23 00:06:03;;;;;;;;;25.50;24.25;;;;;23.79;45.15;101494.91;5026145;28;51674;-58
2021/06/23 00:08:28;;;;;;;;;25.00;22.50;;;;;23.79;45.21;101492.16;5027131;28;51008;-58
2021/06/23 00:10:54;;;;;;;;;26.00;22.25;;;;;23.79;44.81;101487.47;5025420;28;51060;-58
2021/06/23 00:13:20;;;;;;;;;28.50;23.25;;;;;23.78;45.51;101499.59;5017917;28;51000;-59
2021/06/23 00:15:45;;;;;;;;;24.75;24.25;;;;;23.79;44.79;101494.91;5015936;28;51255;-58
2021/06/23 00:18:11;;;;;;;;;29.75;27.25;;;;;23.77;45.56;101495.16;5014202;28;51215;-58
2021/06/23 00:20:37;;;;;;;;;22.75;21.75;;;;;23.77;45.00;101492.38;5027248;28;51366;-58
2021/06/23 00:23:03;;;;;;;;;29.75;24.00;;;;;23.77;45.44;101494.31;5018925;28;50921;-58
2021/06/23 00:25:29;;;;;;;;;25.25;22.75;;;;;23.76;45.25;101496.22;5032688;28;52785;-58
2021/06/23 00:27:55;;;;;;;;;23.75;22.75;;;;;23.76;45.10;101487.06;5027187;27;51246;-61
2021/06/23 00:30:20;;;;;;;;;26.75;25.25;;;;;23.76;45.33;101503.66;5017616;28;51348;-59
2021/06/23 00:32:46;;;;;;;;;23.25;22.75;;;;;23.75;45.40;101497.28;5016346;28;51269;-58
2021/06/23 00:35:13;;;;;;;;;21.00;20.00;;;;;23.75;45.30;101501.97;5014254;28;51065;-59
2021/06/23 00:37:38;;;;;;;;;23.25;21.25;;;;;23.75;45.36;101490.91;5017519;28;51004;-59
2021/06/23 00:40:05;;;;;;;;;23.25;20.25;;;;;23.73;45.49;101484.75;5019117;28;51091;-59
2021/06/23 00:42:31;;;;;;;;;24.50;23.00;;;;;23.71;45.38;101501.59;5015639;28;51070;-59
2021/06/23 00:44:57;;;;;;;;;21.25;20.75;;;;;23.71;45.03;101492.44;5015640;27;51162;-59
2021/06/23 00:47:26;;;;;;;;;25.50;23.00;;;;;23.71;45.32;101504.34;5019834;28;51059;-59
2021/06/23 00:49:52;;;;;;;;;22.75;22.75;;;;;23.70;45.12;101499.03;5019918;27;51033;-59
2021/06/23 00:52:18;;;;;;;;;23.50;22.75;;;;;23.70;45.13;101501.81;5033898;28;51060;-59
2021/06/23 00:54:48;;;;;;;;;21.00;20.00;;;;;23.69;45.60;101505.66;5017595;28;51756;-59
2021/06/23 00:57:14;;;;;;;;;21.25;21.25;;;;;23.69;45.41;101506.50;5015069;27;51533;-59
2021/06/23 00:59:40;;;;;;;;;22.25;19.75;;;;;23.68;45.10;101499.28;5032476;27;51023;-58
2021/06/23 01:02:06;;;;;;;;;22.25;21.75;;;;;23.67;45.01;101497.59;5016433;28;50926;-58
2021/06/23 01:04:31;;;;;;;;;18.75;18.00;;;;;23.67;44.84;101494.81;5016848;28;51184;-59
2021/06/23 01:06:57;;;;;;;;;24.25;20.25;;;;;23.67;45.23;101493.97;5021260;28;51422;-58
2021/06/23 01:09:23;;;;;;;;;25.75;21.75;;;;;23.66;44.85;101504.19;5015451;28;51355;-58
2021/06/23 01:12:07;;;;;;;;;21.75;21.00;;;;;23.66;45.38;101500.59;5015183;28;52550;-59
2021/06/23 01:14:34;;;;;;;;;21.00;21.00;;;;;23.65;45.01;101498.88;5011203;28;51070;-59
2021/06/23 01:17:02;;;;;;;;;22.25;20.25;;;;;23.64;45.24;101497.19;5014087;28;50986;-59
2021/06/23 01:19:31;;;;;;;;;21.00;19.00;;;;;23.64;45.30;101503.56;5014222;28;51022;-58
2021/06/23 01:21:57;;;;;;;;;24.75;21.25;;;;;23.63;45.23;101487.19;5020361;28;51199;-59
2021/06/23 01:24:22;;;;;;;;;23.50;20.75;;;;;23.62;44.96;101500.19;5017171;28;51168;-59
2021/06/23 01:26:47;;;;;;;;;24.75;22.25;;;;;23.63;44.87;101498.25;5019543;28;51113;-59
2021/06/23 01:29:13;;;;;;;;;24.50;22.25;;;;;23.60;45.05;101497.66;5006787;28;51155;-59
2021/06/23 01:31:38;;;;;;;;;20.50;18.75;;;;;23.62;44.79;101500.19;5014833;27;50926;-59
2021/06/23 01:34:04;;;;;;;;;30.75;25.00;;;;;23.59;45.39;101501.50;5016341;28;51574;-59
2021/06/23 01:36:30;;;;;;;;;24.50;20.25;;;;;23.58;45.49;101490.63;5018382;28;51113;-59
2021/06/23 01:38:56;;;;;;;;;22.75;20.50;;;;;23.57;44.92;101495.31;5020574;27;51490;-59
2021/06/23 01:41:22;;;;;;;;;21.00;18.75;;;;;23.57;45.23;101498.06;5020265;28;51153;-58
2021/06/23 01:43:47;;;;;;;;;25.00;18.75;;;;;23.58;45.07;101504.44;5014948;28;52364;-59
2021/06/23 01:46:13;;;;;;;;;27.50;23.00;;;;;23.57;44.81;101495.31;5014335;28;51048;-59
2021/06/23 01:48:38;;;;;;;;;25.50;20.25;;;;;23.57;44.76;101497.22;5026224;27;51812;-59
2021/06/23 01:51:04;;;;;;;;;25.25;21.50;;;;;23.56;44.84;101499.16;5025200;28;50969;-59
2021/06/23 01:53:33;;;;;;;;;25.00;22.25;;;;;23.55;45.39;101497.47;5014647;28;51051;-58
2021/06/23 01:55:59;;;;;;;;;27.25;21.00;;;;;23.54;45.39;101497.66;5019888;28;51160;-58
2021/06/23 01:58:25;;;;;;;;;26.50;23.00;;;;;23.54;45.07;101503.19;5013961;28;51191;-59
2021/06/23 02:01:01;;;;;;;;;25.50;21.25;;;;;23.53;45.08;101496.81;5017532;27;51056;-58
2021/06/23 02:03:51;;;;;;;;;21.75;20.00;;;;;23.55;45.16;101502.13;5014038;28;51853;-59
2021/06/23 02:06:48;;;;;;;;;23.75;20.75;;;;;23.52;45.02;101500.66;5015667;28;50876;-59
2021/06/23 02:09:51;;;;;;;;;25.00;20.00;;;;;23.51;45.04;101501.75;5013031;27;51119;-59
2021/06/23 02:12:25;;;;;;;;;22.75;20.75;;;;;23.51;44.88;101496.22;5021980;28;52149;-60
2021/06/23 02:14:54;;;;;;;;;26.75;20.50;;;;;23.50;45.27;101491.75;5032742;27;51995;-59
2021/06/23 02:17:22;;;;;;;;;22.75;19.75;;;;;23.51;45.04;101492.59;5020382;27;51196;-59
2021/06/23 02:19:50;;;;;;;;;26.75;23.25;;;;;23.50;45.27;101486.22;5014220;28;50992;-59
2021/06/23 02:22:19;;;;;;;;;23.25;20.75;;;;;23.50;44.86;101489.00;5015385;28;51089;-58
2021/06/23 02:24:47;;;;;;;;;23.75;21.50;;;;;23.49;45.05;101484.53;5020237;28;51023;-59
2021/06/23 02:27:13;;;;;;;;;23.50;22.50;;;;;23.49;45.43;101489.22;5033788;27;51349;-59
2021/06/23 02:29:39;;;;;;;;;25.00;21.50;;;;;23.47;45.46;101483.06;5033632;27;51068;-58
2021/06/23 02:32:12;;;;;;;;;24.75;24.00;;;;;23.47;45.38;101486.69;5017415;28;50940;-59
2021/06/23 02:34:40;;;;;;;;;24.00;20.00;;;;;23.46;45.10;101485.00;5017410;28;52700;-60
2021/06/23 02:37:06;;;;;;;;;22.75;20.25;;;;;23.46;45.23;101489.69;5025022;28;50964;-59
2021/06/23 02:39:32;;;;;;;;;22.00;20.75;;;;;23.45;45.19;101496.28;5023072;28;50964;-59
2021/06/23 02:41:57;;;;;;;;;25.25;17.75;;;;;23.45;44.96;101496.28;5017631;28;51383;-59
2021/06/23 02:44:24;;;;;;;;;23.00;19.00;;;;;23.44;45.65;101498.19;5016412;28;51328;-59
2021/06/23 02:46:50;;;;;;;;;22.50;18.75;;;;;23.43;45.47;101502.03;5015631;28;51415;-59
2021/06/23 02:49:16;;;;;;;;;20.25;18.75;;;;;23.42;44.99;101494.78;5019341;28;51622;-58
2021/06/23 02:51:42;;;;;;;;;20.50;18.75;;;;;23.42;45.20;101505.84;5020805;28;51275;-59
2021/06/23 02:54:09;;;;;;;;;18.25;16.75;;;;;23.41;45.46;101497.78;5017460;28;51581;-59
2021/06/23 02:56:35;;;;;;;;;22.75;21.00;;;;;23.41;45.48;101506.09;5017009;28;51102;-59
2021/06/23 02:59:02;;;;;;;;;20.00;17.50;;;;;23.40;45.53;101510.78;5018311;28;51183;-59
2021/06/23 03:01:28;;;;;;;;;22.50;19.75;;;;;23.39;45.58;101511.84;5009021;28;51352;-58
2021/06/23 03:03:54;;;;;;;;;21.75;18.50;;;;;23.39;45.41;101508.25;5015892;27;51725;-59
2021/06/23 03:06:19;;;;;;;;;19.25;19.25;;;;;23.39;44.96;101506.31;5021121;28;51633;-58
2021/06/23 03:08:45;;;;;;;;;21.25;19.25;;;;;23.39;45.05;101499.94;5016864;28;51008;-59
2021/06/23 03:11:10;;;;;;;;;21.00;19.75;;;;;23.39;44.94;101506.31;5020435;28;50971;-59
2021/06/23 03:13:35;;;;;;;;;18.00;18.00;;;;;23.38;44.94;101498.25;5018519;28;50982;-59
2021/06/23 03:16:01;;;;;;;;;19.75;19.00;;;;;23.37;45.40;101494.66;5022579;28;51065;-59
2021/06/23 03:18:32;;;;;;;;;18.00;16.75;;;;;23.37;45.32;101493.81;5015565;27;50969;-60
2021/06/23 03:20:58;;;;;;;;;13.50;13.50;;;;;23.36;45.07;101506.78;5021725;28;50991;-60
2021/06/23 03:23:23;;;;;;;;;18.00;15.75;;;;;23.34;45.16;101495.06;5015094;28;51089;-59
2021/06/23 03:25:49;;;;;;;;;18.00;13.50;;;;;23.35;44.92;101496.78;5016470;28;51133;-59
2021/06/23 03:28:14;;;;;;;;;14.00;13.00;;;;;23.35;45.56;101501.47;5035561;27;51194;-59
2021/06/23 03:30:40;;;;;;;;;15.00;12.75;;;;;23.34;45.37;101497.84;5034815;28;51315;-59
2021/06/23 03:33:06;;;;;;;;;13.75;12.25;;;;;23.33;45.63;101502.53;5042853;27;51905;-59
2021/06/23 03:35:31;;;;;;;;;13.75;12.00;;;;;23.34;45.56;101500.59;5025294;28;50491;-58
2021/06/23 03:37:57;;;;;;;;;16.50;13.00;;;;;23.31;44.85;101496.38;5023856;28;51071;-59
2021/06/23 03:40:24;;;;;;;;;12.75;11.00;;;;;23.32;45.23;101500.84;5023319;28;51130;-59
2021/06/23 03:42:49;;;;;;;;;14.00;12.75;;;;;23.32;45.10;101500.00;5019204;28;51839;-59
2021/06/23 03:45:15;;;;;;;;;13.00;12.25;;;;;23.31;45.33;101496.38;5021822;28;51127;-59
2021/06/23 03:47:41;;;;;;;;;14.25;13.00;;;;;23.31;45.00;101501.06;5020308;28;50904;-59
2021/06/23 03:50:08;;;;;;;;;13.75;11.50;;;;;23.31;45.23;101506.59;5017807;28;51181;-59
2021/06/23 03:52:35;;;;;;;;;12.50;12.50;;;;;23.30;45.46;101504.91;5016259;28;51003;-58
2021/06/23 03:55:01;;;;;;;;;17.00;11.00;;;;;23.28;45.48;101507.91;5017104;28;51237;-59
2021/06/23 03:57:27;;;;;;;;;14.50;13.25;;;;;23.28;45.51;101504.28;5015841;28;51285;-59
2021/06/23 03:59:52;;;;;;;;;11.25;10.25;;;;;23.27;45.05;101508.13;5014788;28;50982;-59
2021/06/23 04:02:18;;;;;;;;;10.75;9.75;;;;;23.27;45.29;101510.91;5019446;28;51116;-59
2021/06/23 04:04:45;;;;;;;;;12.00;11.75;;;;;23.25;45.03;101516.66;5023497;28;51197;-59
2021/06/23 04:07:11;;;;;;;;;13.25;12.00;;;;;23.25;45.35;101515.81;5018261;27;51105;-59
2021/06/23 04:09:36;;;;;;;;;13.25;11.00;;;;;23.24;45.40;101508.56;5016456;28;50886;-59
2021/06/23 04:12:02;;;;;;;;;9.75;9.75;;;;;23.23;45.20;101507.72;5021241;28;50964;-58
2021/06/23 04:14:28;;;;;;;;;14.00;12.00;;;;;23.23;45.37;101515.16;5011799;28;51118;-59
2021/06/23 04:16:54;;;;;;;;;10.75;10.00;;;;;23.24;45.18;101519.63;5021650;28;51130;-59
2021/06/23 04:19:20;;;;;;;;;12.00;11.25;;;;;23.23;45.37;101517.91;5015357;28;51284;-59
2021/06/23 04:21:45;;;;;;;;;16.50;13.00;;;;;23.22;45.59;101524.53;5018176;28;51251;-59
2021/06/23 04:24:11;;;;;;;;;11.75;10.00;;;;;23.20;45.12;101513.69;5020278;28;51118;-58
2021/06/23 04:26:36;;;;;;;;;11.75;11.25;;;;;23.20;45.77;101518.38;5023087;28;51229;-58
2021/06/23 04:29:02;;;;;;;;;13.75;12.25;;;;;23.19;45.76;101525.81;5016345;27;51186;-59
2021/06/23 04:31:27;;;;;;;;;11.25;9.25;;;;;23.19;45.46;101522.22;5014681;28;51848;-59
2021/06/23 04:33:52;;;;;;;;;12.75;12.25;;;;;23.19;45.53;101528.59;5014704;28;51173;-59
2021/06/23 04:36:18;;;;;;;;;14.25;13.50;;;;;23.18;45.18;101532.44;5016408;28;51084;-59
2021/06/23 04:38:43;;;;;;;;;12.25;11.75;;;;;23.18;45.65;101539.88;5020981;28;51557;-59
2021/06/23 04:41:08;;;;;;;;;15.00;14.75;;;;;23.18;45.84;101537.97;5024580;28;50943;-59
2021/06/23 04:43:34;;;;;;;;;14.25;12.25;;;;;23.17;45.68;101527.13;5023895;28;50927;-59
2021/06/23 04:45:59;;;;;;;;;13.50;13.50;;;;;23.16;45.04;101542.88;5044419;28;51069;-59
2021/06/23 04:48:24;;;;;;;;;14.25;11.25;;;;;23.16;45.71;101540.09;5021862;28;51094;-60
2021/06/23 04:50:50;;;;;;;;;12.25;12.25;;;;;23.15;45.59;101541.19;5037620;28;51883;-59
2021/06/23 04:53:15;;;;;;;;;16.50;11.50;;;;;23.15;45.26;101545.84;5018596;28;51082;-59
2021/06/23 04:55:40;;;;;;;;;11.75;11.00;;;;;23.15;45.63;101538.41;5017848;28;50883;-59
2021/06/23 04:58:06;;;;;;;;;11.75;11.75;;;;;23.14;45.72;101535.88;5020243;28;51002;-59
2021/06/23 05:00:31;;;;;;;;;15.50;11.00;;;;;23.14;45.65;101536.72;5022870;28;51060;-58
2021/06/23 05:02:56;;;;;;;;;13.50;11.50;;;;;23.12;45.35;101538.00;5017386;27;51197;-58
2021/06/23 05:05:22;;;;;;;;;13.50;11.50;;;;;23.12;45.46;101543.53;5030650;28;51130;-58
2021/06/23 05:07:47;;;;;;;;;12.00;12.00;;;;;23.13;45.57;101539.69;5015541;28;50936;-58
2021/06/23 05:10:13;;;;;;;;;13.50;10.75;;;;;23.12;45.67;101538.84;5016448;28;52633;-59
2021/06/23 05:12:38;;;;;;;;;11.25;11.00;;;;;23.12;45.28;101543.53;5018253;28;51035;-59
2021/06/23 05:15:05;;;;;;;;;11.00;10.50;;;;;23.11;45.26;101548.19;5018889;28;51202;-59
2021/06/23 05:17:31;;;;;;;;;13.50;12.50;;;;;23.10;45.54;101554.81;5022499;28;51001;-58
2021/06/23 05:19:56;;;;;;;;;14.00;11.25;;;;;;;;5018867;28;52080;-59
2021/06/23 05:22:22;;;;;;;;;11.75;11.00;;;;;23.08;45.29;101556.09;5010280;27;51048;-59
2021/06/23 05:24:47;;;;;;;;;14.00;11.25;;;;;23.10;45.16;101556.72;5028654;27;51035;-59
2021/06/23 05:27:13;;;;;;;;;12.25;11.00;;;;;23.08;45.92;101564.41;5018843;27;50952;-59
2021/06/23 05:29:38;;;;;;;;;12.75;11.25;;;;;23.10;45.31;101562.25;5013571;28;51619;-59
2021/06/23 05:32:04;;;;;;;;;12.75;11.25;;;;;23.08;45.67;101567.16;5013285;27;51130;-59
2021/06/23 05:34:30;;;;;;;;;13.25;11.75;;;;;23.08;45.80;101569.91;5013612;28;51087;-59
2021/06/23 05:36:58;;;;;;;;;16.25;14.75;;;;;23.07;45.78;101569.06;5035133;27;51244;-59
2021/06/23 05:39:25;;;;;;;;;11.75;9.75;;;;;23.07;45.91;101569.06;5014249;28;51987;-59
2021/06/23 05:41:50;;;;;;;;;16.00;13.25;;;;;23.07;45.70;101571.00;5013583;28;51375;-59
2021/06/23 05:44:16;;;;;;;;;17.25;16.50;;;;;23.03;45.49;101576.09;5014218;28;51188;-57
2021/06/23 05:46:41;;;;;;;;;18.50;14.50;;;;;23.00;45.34;101569.09;5020232;27;51148;-57
2021/06/23 05:49:07;;;;;;;;;13.50;12.50;;;;;23.01;45.41;101570.78;5014916;28;51064;-59
2021/06/23 05:51:32;;;;;;;;;14.50;14.25;;;;;23.02;46.11;101568.88;5015598;28;51084;-59
2021/06/23 05:53:57;;;;;;;;;12.50;10.50;;;;;23.02;45.64;101568.88;5010114;27;51128;-59
2021/06/23 05:56:23;;;;;;;;;9.25;9.25;;;;;23.03;45.93;101573.34;5022623;28;50995;-59
2021/06/23 05:58:48;;;;;;;;;10.75;10.00;;;;;23.03;46.05;101565.91;5004919;28;51505;-59
2021/06/23 06:01:14;;;;;;;;;12.00;10.25;;;;;23.06;46.18;101581.19;5014858;28;51118;-60
2021/06/23 06:03:39;;;;;;;;;9.25;9.25;;;;;23.08;45.77;101570.75;5026009;28;51331;-58
2021/06/23 06:06:05;;;;;;;;;8.50;8.50;;;;;23.12;45.96;101579.44;5021838;28;52390;-58
2021/06/23 06:08:31;;;;;;;;;11.75;8.25;;;;;23.13;45.74;101578.38;5011101;28;51481;-59
2021/06/23 06:10:56;;;;;;;;;12.25;8.75;;;;;23.15;46.04;101588.16;5018062;28;50904;-59
2021/06/23 06:13:22;;;;;;;;;12.00;11.25;;;;;23.17;46.01;101586.00;5019737;28;51383;-59
2021/06/23 06:15:47;;;;;;;;;10.25;9.00;;;;;23.19;45.78;101592.16;5031905;28;51347;-60
2021/06/23 06:18:13;;;;;;;;;9.75;8.25;;;;;23.22;46.04;101582.56;5014238;28;51087;-60
2021/06/23 06:20:39;;;;;;;;;12.50;10.00;;;;;23.24;46.58;101591.47;5012586;28;50954;-60
2021/06/23 06:23:05;;;;;;;;;9.50;9.25;;;;;23.27;46.48;101600.19;5037798;27;51142;-59
2021/06/23 06:25:30;;;;;;;;;11.50;10.75;;;;;23.28;46.59;101601.88;5045539;27;51433;-60
2021/06/23 06:27:56;;;;;;;;;11.50;11.50;;;;;23.30;46.36;101608.03;5018655;27;51594;-59
2021/06/23 06:30:23;;;;;;;;;9.50;8.50;;;;;23.32;46.61;101603.13;5014568;28;51129;-61
2021/06/23 06:32:49;;;;;;;;;12.75;12.00;;;;;23.34;46.90;101597.38;5019156;27;51161;-59
2021/06/23 06:35:14;;;;;;;;;10.75;10.00;;;;;23.36;46.44;101611.84;5014458;27;51077;-59
2021/06/23 06:37:40;;;;;;;;;13.25;12.75;;;;;23.38;46.47;101612.44;5020194;27;51709;-60
2021/06/23 06:40:07;;;;;;;;;12.50;11.25;;;;;23.40;46.37;101615.00;5006899;27;51155;-59
2021/06/23 06:42:32;;;;;;;;;10.75;10.50;;;;;23.41;46.84;101612.00;5007692;27;51497;-57
2021/06/23 06:44:58;;;;;;;;;10.00;10.00;;;;;23.42;46.20;101616.47;5009769;28;51333;-54
2021/06/23 06:47:23;;;;;;;;;10.25;10.00;;;;;23.45;46.88;101613.25;5007780;28;51732;-64
2021/06/23 06:49:49;;;;;;;;;10.00;9.75;;;;;23.48;46.40;101620.25;5012035;28;51306;-51
2021/06/23 06:52:14;;;;;;;;;13.25;9.25;;;;;23.47;46.42;101619.41;5009818;28;50977;-58
2021/06/23 06:54:39;;;;;;;;;13.25;11.00;;;;;23.47;46.10;101624.94;5006567;27;51185;-56
2021/06/23 06:57:05;;;;;;;;;11.75;11.00;;;;;23.48;46.62;101621.09;5010675;28;51048;-58
2021/06/23 06:59:31;;;;;;;;;13.00;11.75;;;;;23.50;46.55;101627.25;5023854;28;51762;-60
2021/06/23 07:01:56;;;;;;;;;10.00;9.00;;;;;23.52;46.13;101625.09;5036952;27;51149;-58
2021/06/23 07:04:22;;;;;;;;;13.25;13.25;;;;;23.53;46.04;101632.31;5012280;28;51351;-58
2021/06/23 07:06:48;;;;;;;;;16.25;15.00;;;;;23.52;45.72;101624.25;5011558;28;51845;-60
2021/06/23 07:09:16;;;;;;;;;18.75;16.00;;;;;23.48;45.72;101629.41;5010817;28;51225;-60
2021/06/23 07:11:43;;;;;;;;;22.25;19.75;;;;;23.45;46.04;101629.84;5013453;28;51120;-60
2021/06/23 07:14:09;;;;;;;;;19.00;17.50;;;;;23.43;45.40;101633.88;5014221;28;51296;-60
2021/06/23 07:16:34;;;;;;;;;19.00;15.25;;;;;23.39;45.88;101633.50;5029914;27;51044;-63
2021/06/23 07:19:00;;;;;;;;;15.25;15.00;;;;;23.38;45.31;101631.81;5022292;27;51079;-59
2021/06/23 07:21:26;;;;;;;;;19.25;15.25;;;;;23.33;45.76;101629.69;5014333;28;51064;-59
2021/06/23 07:23:57;;;;;;;;;19.25;16.50;;;;;23.31;45.83;101636.53;5014654;28;51359;-59
2021/06/23 07:26:24;;;;;;;;;16.00;15.50;;;;;23.28;45.72;101642.50;5013385;27;51845;-60
2021/06/23 07:28:55;;;;;;;;;15.75;15.25;;;;;23.25;45.60;101637.44;5025181;27;51522;-59
2021/06/23 07:36:46;;;;;;;;;19.25;14.75;;;;;23.18;45.31;101642.97;5000721;28;51374;-62
2021/06/23 07:39:15;;;;;;;;;15.00;15.00;;;;;23.17;45.40;101643.22;5014175;28;51170;-60
2021/06/23 07:41:43;;;;;;;;;14.50;13.00;;;;;23.15;45.47;101642.59;5015670;28;50992;-62
2021/06/23 07:44:11;;;;;;;;;15.50;14.50;;;;;23.13;45.35;101645.53;5013862;28;51225;-59
2021/06/23 07:46:40;;;;;;;;;13.25;13.25;;;;;23.10;45.26;101646.00;5013234;28;53144;-59
2021/06/23 07:49:11;;;;;;;;;12.50;11.75;;;;;23.08;45.97;101650.91;5013997;28;51269;-60
2021/06/23 07:51:55;;;;;;;;;13.75;12.25;;;;;;;;5014295;27;51095;-60
2021/06/23 07:54:37;;;;;;;;;12.00;9.75;;;;;23.10;45.91;101645.16;5017625;28;51102;-60
2021/06/23 08:10:37;;;;;;;;;10.75;10.00;;;;;23.22;45.91;101660.81;5014941;28;51063;-59
2021/06/23 08:13:04;;;;;;;;;11.25;8.50;;;;;23.23;45.90;101656.97;5031677;28;51184;-59
2021/06/23 08:15:31;;;;;;;;;14.00;9.75;;;;;23.25;45.32;101657.63;5008276;28;52329;-62
2021/06/23 08:17:57;;;;;;;;;11.50;11.00;;;;;23.26;45.35;101651.03;5013931;27;52291;-59
2021/06/23 08:20:23;;;;;;;;;11.75;10.75;;;;;23.28;45.30;101648.03;5016521;27;51110;-59
2021/06/23 08:22:49;;;;;;;;;9.25;8.25;;;;;23.30;45.65;101656.94;5015481;28;51271;-59
2021/06/23 08:25:15;;;;;;;;;12.50;10.25;;;;;23.31;45.88;101653.97;5017222;28;51110;-59
2021/06/23 08:27:41;;;;;;;;;11.00;11.00;;;;;23.31;45.21;101642.91;5031832;27;52950;-59
2021/06/23 08:30:07;;;;;;;;;8.00;8.00;;;;;23.34;45.42;101655.41;5013610;28;51400;-60
2021/06/23 08:32:33;;;;;;;;;9.25;9.25;;;;;23.34;45.77;101652.66;5019352;28;51830;-60
2021/06/23 08:34:58;;;;;;;;;10.25;9.00;;;;;23.36;45.43;101647.78;5021970;28;50638;-59
2021/06/23 08:37:24;;;;;;;;;13.25;9.50;;;;;23.35;45.59;101651.63;5013351;28;51724;-64
2021/06/23 08:39:49;;;;;;;;;9.75;9.75;;;;;23.35;45.74;101648.84;5020034;27;51173;-58
2021/06/23 08:42:15;;;;;;;;;11.25;8.75;;;;;23.36;45.73;101653.31;5022334;28;51034;-59
2021/06/23 08:44:40;;;;;;;;;10.50;10.25;;;;;23.36;46.20;101647.78;5013397;28;51045;-58
2021/06/23 08:47:06;;;;;;;;;9.50;9.50;;;;;23.34;46.23;101652.66;5011890;27;51067;-57
2021/06/23 08:49:32;;;;;;;;;9.50;9.50;;;;;23.33;46.04;101656.50;5035724;27;51292;-57
2021/06/23 08:51:57;;;;;;;;;10.50;10.50;;;;;23.31;46.24;101653.97;5036540;27;52509;-57
2021/06/23 08:54:26;;;;;;;;;12.25;10.75;;;;;23.29;46.33;101650.56;5033550;27;51371;-57
2021/06/23 08:56:52;;;;;;;;;9.00;9.00;;;;;23.29;46.53;101653.34;5032534;27;51043;-54
2021/06/23 08:59:18;;;;;;;;;10.00;9.00;;;;;23.29;46.70;101650.56;5028138;27;51973;-55
2021/06/23 09:01:43;;;;;;;;;10.00;9.00;;;;;23.29;46.24;101655.25;5035990;27;51059;-58
2021/06/23 09:04:10;;;;;;;;;10.50;10.50;;;;;23.28;46.75;101653.56;5033725;27;51311;-58
2021/06/23 09:06:51;;;;;;;;;15.25;12.75;;;;;23.29;46.71;101650.56;5037481;27;51057;-57
2021/06/23 09:09:21;;;;;;;;;12.25;12.00;;;;;23.29;46.69;101650.56;5039409;27;50646;-58
2021/06/23 09:11:48;;;;;;;;;10.75;9.50;;;;;23.29;46.38;101658.03;5046827;27;51158;-57
2021/06/23 09:14:17;;;;;;;;;13.00;11.75;;;;;23.28;46.01;101651.66;5043891;27;50952;-59
2021/06/23 09:17:05;;;;;;;;;11.50;11.00;;;;;23.28;46.18;101653.56;5037871;27;51530;-58
2021/06/23 09:19:40;;;;;;;;;13.75;11.75;;;;;23.28;46.12;101653.56;5029849;27;51339;-58
2021/06/23 09:22:33;;;;;;;;;13.50;11.75;;;;;23.27;46.37;101666.53;5025381;27;51495;-58
2021/06/23 09:25:01;;;;;;;;;13.75;11.00;;;;;23.27;46.66;101662.94;5056521;27;51249;-58
2021/06/23 09:27:29;;;;;;;;;15.00;13.75;;;;;23.27;46.56;101662.94;5052962;27;51101;-58
2021/06/23 09:30:32;;;;;;;;;10.00;10.00;;;;;23.28;46.31;101668.22;5033493;27;51213;-58
2021/06/23 09:33:21;;;;;;;;;10.50;8.50;;;;;23.27;46.07;101672.06;5028485;27;51240;-58
2021/06/23 09:35:55;;;;;;;;;10.25;9.75;;;;;23.27;46.37;101658.25;5042460;27;51143;-57
2021/06/23 09:38:39;;;;;;;;;10.00;10.00;;;;;23.28;46.44;101659.94;5034976;27;51985;-58
2021/06/23 09:41:20;;;;;;;;;12.25;12.00;;;;;23.29;46.45;101666.31;5059892;27;51297;-57
2021/06/23 09:43:49;;;;;;;;;11.50;11.00;;;;;23.31;46.77;101661.41;5041077;27;51334;-57
2021/06/23 09:46:24;;;;;;;;;12.00;11.75;;;;;23.31;46.45;101659.47;5045321;27;51112;-56
2021/06/23 09:49:01;;;;;;;;;11.00;9.25;;;;;23.33;46.91;101662.03;5047409;27;51099;-55
2021/06/23 09:51:27;;;;;;;;;12.25;10.50;;;;;23.33;46.76;101662.03;5036848;27;51343;-55
2021/06/23 09:54:00;;;;;;;;;11.25;9.25;;;;;23.34;46.73;101663.72;5074169;27;50987;-57
2021/06/23 09:56:30;;;;;;;;;10.00;9.00;;;;;23.34;46.65;101663.72;5026162;27;51285;-53
2021/06/23 09:58:57;;;;;;;;;13.25;11.75;;;;;23.33;46.56;101651.81;5027642;27;51213;-57
2021/06/23 10:01:23;;;;;;;;;11.50;11.00;;;;;23.34;46.57;101658.19;5023947;27;51106;-53
2021/06/23 10:04:01;;;;;;;;;10.75;10.75;;;;;23.34;46.91;101663.72;5030961;27;51244;-54
2021/06/23 10:06:31;;;;;;;;;12.75;12.25;;;;;23.32;46.66;101654.81;5050126;27;51085;-54
2021/06/23 10:09:14;;;;;;;;;11.25;11.25;;;;;23.33;46.59;101662.03;5040127;28;52139;-57
2021/06/23 10:11:41;;;;;;;;;14.00;12.25;;;;;23.31;46.35;101656.72;5033103;27;51524;-57
2021/06/23 10:14:08;;;;;;;;;10.75;9.25;;;;;23.31;46.85;101665.00;5073653;27;51570;-57
2021/06/23 10:16:35;;;;;;;;;15.50;11.25;;;;;23.30;46.91;101662.47;5026371;27;50999;-55
2021/06/23 10:19:02;;;;;;;;;13.25;12.50;;;;;23.30;46.93;101665.25;5031398;27;51908;-53
2021/06/23 10:21:30;;;;;;;;;15.00;11.25;;;;;23.30;46.64;101668.00;5049993;27;50671;-57
2021/06/23 10:23:57;;;;;;;;;11.75;11.00;;;;;23.29;47.04;101675.44;5028993;27;51030;-55
2021/06/23 10:26:25;;;;;;;;;11.75;10.50;;;;;23.29;46.37;101669.06;5044626;27;51119;-55
2021/06/23 10:28:53;;;;;;;;;10.50;10.00;;;;;23.29;47.06;101669.91;5016149;27;51883;-58
2021/06/23 10:31:21;;;;;;;;;12.00;11.75;;;;;23.29;46.79;101658.88;5012201;28;51609;-56
2021/06/23 10:33:47;;;;;;;;;10.75;9.75;;;;;23.29;46.70;101669.06;5013202;28;51139;-56
2021/06/23 10:36:13;;;;;;;;;13.00;10.50;;;;;23.28;46.73;101664.63;5014383;27;51302;-55
2021/06/23 10:38:42;;;;;;;;;15.00;10.25;;;;;23.28;46.70;101667.38;5027767;28;52874;-52
2021/06/23 10:41:08;;;;;;;;;13.25;12.00;;;;;23.26;46.84;101664.84;5009704;27;51395;-52
2021/06/23 10:43:34;;;;;;;;;11.25;9.75;;;;;23.28;47.01;101672.91;5011574;28;51214;-52
2021/06/23 10:45:59;;;;;;;;;7.75;7.25;;;;;23.28;47.24;101678.44;5026981;28;51528;-53
2021/06/23 10:48:25;;;;;;;;;11.25;9.50;;;;;23.29;47.80;101671.84;5011499;27;52479;-49
2021/06/23 10:50:50;;;;;;;;;11.50;9.75;;;;;23.30;47.70;101674.38;5010656;28;51217;-52
2021/06/23 10:53:28;;;;;;;;;10.25;9.00;;;;;23.30;47.30;101673.53;5015417;28;51043;-54
2021/06/23 10:55:53;;;;;;;;;10.00;9.50;;;;;23.31;47.76;101681.59;5014905;28;51081;-50
2021/06/23 10:58:32;;;;;;;;;11.50;10.25;;;;;23.32;47.33;101680.53;5017549;28;51124;-53
2021/06/23 11:01:11;;;;;;;;;11.33;10.00;;;;;23.33;47.76;101675.84;5025174;27;51056;-56
2021/06/23 11:03:58;;;;;;;;;16.75;12.25;;;;;23.35;47.54;101683.94;5019097;28;51127;-55
2021/06/23 11:06:44;;;;;;;;;11.50;11.50;;;;;23.37;47.84;101682.66;5013147;28;51137;-48
2021/06/23 11:09:27;;;;;;;;;10.50;10.00;;;;;23.39;47.72;101686.03;5011767;28;52840;-50
2021/06/23 11:11:53;;;;;;;;;8.00;8.00;;;;;23.40;47.78;101687.72;5015477;28;51388;-50
2021/06/23 11:14:20;;;;;;;;;10.00;9.25;;;;;23.39;47.30;101688.78;5014919;28;51265;-50
2021/06/23 11:16:45;;;;;;;;;5.50;5.50;;;;;23.40;47.85;101690.50;5015857;28;50955;-50
2021/06/23 11:19:11;;;;;;;;;12.00;11.25;;;;;23.42;47.74;101702.16;5014622;28;50913;-51
2021/06/23 11:21:37;;;;;;;;;13.75;12.75;;;;;23.41;48.00;101700.47;5016649;28;52614;-54
2021/06/23 11:24:16;;;;;;;;;11.50;9.00;;;;;23.42;47.46;101704.09;5014291;28;51000;-51
2021/06/23 11:26:50;;;;;;;;;9.00;8.50;;;;;23.42;47.99;101704.09;5017276;27;51153;-52
2021/06/23 11:29:15;;;;;;;;;11.00;11.00;;;;;23.43;47.61;101701.09;5011746;28;51142;-53
2021/06/23 11:31:53;;;;;;;;;11.00;11.00;;;;;23.43;47.95;101703.84;5014806;28;51203;-51
2021/06/23 11:34:39;;;;;;;;;12.25;10.25;;;;;23.43;47.67;101698.34;5014975;28;50997;-53